Time;durP1;ratioP1;P1;durP2;ratioP2;P2;SDS_P1;SDS_P2;PMS_P1;PMS_P2;Temp;Humidity;BMP_temperature;BMP_pressure;BME280_temperature;BME280_humidity;BME280_pressure;Samples;Min_cycle;Max_cycle;Signal;HPM_P1;HPM_P2
2022/03/18 00:02:11;;;;;;;10.25;4.00;;;11.70;73.80;;;;;;5026363;28;20124;-74
2022/03/18 00:04:37;;;;;;;11.45;3.90;;;11.70;73.80;;;;;;5025745;28;20123;-73
2022/03/18 00:07:03;;;;;;;12.77;3.88;;;11.70;73.80;;;;;;5026171;28;20136;-73
2022/03/18 00:09:29;;;;;;;11.15;3.90;;;11.70;73.70;;;;;;5042555;28;20124;-73
2022/03/18 00:11:54;;;;;;;9.23;3.90;;;11.70;73.70;;;;;;5027406;28;20141;-74
2022/03/18 00:14:21;;;;;;;21.60;4.90;;;11.70;73.70;;;;;;5025473;28;20033;-74
2022/03/18 00:16:46;;;;;;;15.27;4.35;;;11.70;73.60;;;;;;5027492;28;20802;-73
2022/03/18 00:19:12;;;;;;;10.15;3.78;;;11.70;73.60;;;;;;5026944;28;20167;-74
2022/03/18 00:21:38;;;;;;;11.95;4.00;;;11.70;74.20;;;;;;5025779;28;20029;-75
2022/03/18 00:24:04;;;;;;;12.43;4.05;;;11.70;73.70;;;;;;5027165;28;20491;-74
2022/03/18 00:26:30;;;;;;;13.18;4.45;;;11.70;73.70;;;;;;5026485;28;20083;-74
2022/03/18 00:28:56;;;;;;;11.73;4.00;;;11.70;73.60;;;;;;5025356;28;20445;-74
2022/03/18 00:31:22;;;;;;;17.23;4.68;;;11.70;73.60;;;;;;5023799;28;20030;-74
2022/03/18 00:33:47;;;;;;;16.20;4.35;;;11.70;73.70;;;;;;5042466;28;20140;-72
2022/03/18 00:36:13;;;;;;;13.40;3.97;;;11.70;73.60;;;;;;5041168;28;20109;-73
2022/03/18 00:38:39;;;;;;;12.98;3.72;;;11.70;73.60;;;;;;5026139;28;20037;-74
2022/03/18 00:41:05;;;;;;;15.50;4.50;;;11.70;73.60;;;;;;5026874;28;20438;-74
2022/03/18 00:43:30;;;;;;;19.85;4.82;;;11.70;73.60;;;;;;5025691;28;20102;-74
2022/03/18 00:45:56;;;;;;;15.68;3.85;;;11.70;73.50;;;;;;5026885;28;20037;-74
2022/03/18 00:53:51;;;;;;;17.02;4.57;;;11.70;73.20;;;;;;5019920;28;20140;-73
2022/03/18 00:56:17;;;;;;;22.08;5.13;;;11.70;73.20;;;;;;5026448;28;20029;-73
2022/03/18 00:58:43;;;;;;;50.30;7.60;;;11.70;73.20;;;;;;5025228;28;20021;-73
2022/03/18 01:01:08;;;;;;;24.83;4.80;;;11.60;73.10;;;;;;5033693;28;20461;-73
2022/03/18 01:03:34;;;;;;;21.25;4.22;;;11.70;73.20;;;;;;5041221;28;20049;-74
2022/03/18 01:05:59;;;;;;;14.43;4.13;;;11.60;73.10;;;;;;5032614;28;20029;-72
2022/03/18 01:08:25;;;;;;;19.77;4.70;;;11.60;73.10;;;;;;5036563;28;20026;-74
2022/03/18 01:10:50;;;;;;;18.70;4.15;;;11.60;73.10;;;;;;5028332;28;20033;-74
2022/03/18 01:13:16;;;;;;;44.47;6.65;;;11.60;73.00;;;;;;5041474;28;20510;-74
2022/03/18 01:15:41;;;;;;;22.40;4.28;;;11.60;73.00;;;;;;5033957;28;20029;-74
2022/03/18 01:18:07;;;;;;;21.92;5.15;;;11.60;73.00;;;;;;5031520;28;20490;-74
2022/03/18 01:20:33;;;;;;;23.58;5.10;;;11.70;73.10;;;;;;5025886;28;20033;-74
2022/03/18 01:23:00;;;;;;;29.10;5.28;;;11.70;73.00;;;;;;5040744;28;20056;-73
2022/03/18 01:25:26;;;;;;;26.17;4.80;;;11.50;73.50;;;;;;5024838;28;20078;-73
2022/03/18 01:27:51;;;;;;;19.13;4.53;;;11.70;73.10;;;;;;5025959;28;20428;-74
2022/03/18 01:30:17;;;;;;;21.10;4.53;;;11.60;73.00;;;;;;5040852;28;20089;-74
2022/03/18 01:32:42;;;;;;;22.70;4.80;;;11.60;72.90;;;;;;5025859;28;20033;-73
2022/03/18 01:35:10;;;;;;;23.73;4.53;;;11.60;72.90;;;;;;5024952;28;20121;-74
2022/03/18 01:37:35;;;;;;;16.73;4.32;;;11.60;72.90;;;;;;5024836;28;20021;-73
2022/03/18 01:40:01;;;;;;;23.27;4.88;;;11.60;72.90;;;;;;5024728;28;20045;-73
2022/03/18 01:42:26;;;;;;;20.77;5.18;;;11.60;72.90;;;;;;5025809;28;20383;-72
2022/03/18 01:44:52;;;;;;;18.33;4.03;;;11.60;72.90;;;;;;5024559;28;20040;-74
2022/03/18 01:47:18;;;;;;;16.92;4.22;;;11.60;72.90;;;;;;5024965;28;20542;-73
2022/03/18 01:49:44;;;;;;;12.07;3.78;;;11.60;72.90;;;;;;5041436;28;20526;-74
2022/03/18 01:52:11;;;;;;;15.75;4.20;;;11.60;72.90;;;;;;5040827;28;20120;-72
2022/03/18 01:54:47;;;;;;;15.75;4.30;;;11.60;72.80;;;;;;5025494;28;20029;-74
2022/03/18 01:57:16;;;;;;;15.88;4.35;;;11.60;72.80;;;;;;5024198;28;20483;-73
2022/03/18 01:59:42;;;;;;;15.57;4.20;;;11.60;72.80;;;;;;5025534;28;20113;-73
2022/03/18 02:02:08;;;;;;;11.45;4.70;;;11.50;72.80;;;;;;5025812;28;20465;-73
2022/03/18 02:04:35;;;;;;;11.35;4.10;;;11.60;72.70;;;;;;5041026;28;20029;-73
2022/03/18 02:07:02;;;;;;;12.43;3.78;;;11.60;72.60;;;;;;5025330;28;20069;-72
2022/03/18 02:09:27;;;;;;;14.50;4.00;;;11.60;72.60;;;;;;5024991;28;20628;-73
2022/03/18 02:11:54;;;;;;;12.55;4.15;;;11.60;72.60;;;;;;5032576;28;20124;-74
2022/03/18 02:14:34;;;;;;;14.07;4.47;;;11.60;72.60;;;;;;5038498;28;20032;-73
2022/03/18 02:17:02;;;;;;;11.88;4.00;;;11.60;72.60;;;;;;5025780;28;20020;-72
2022/03/18 02:19:28;;;;;;;17.50;4.05;;;11.60;72.60;;;;;;5043743;28;20043;-73
2022/03/18 02:21:55;;;;;;;16.23;4.30;;;11.60;72.70;;;;;;5044738;28;20412;-74
2022/03/18 02:24:21;;;;;;;18.00;4.30;;;11.60;72.60;;;;;;5044003;28;20037;-73
2022/03/18 02:26:47;;;;;;;11.82;4.43;;;11.60;72.60;;;;;;5028126;28;20976;-75
2022/03/18 02:29:13;;;;;;;11.65;4.13;;;11.60;72.50;;;;;;5030764;28;20033;-74
2022/03/18 02:31:39;;;;;;;32.08;4.93;;;11.60;72.50;;;;;;5035034;28;20028;-74
2022/03/18 02:34:05;;;;;;;24.20;4.97;;;11.60;72.50;;;;;;5030511;28;20038;-73
2022/03/18 02:36:30;;;;;;;15.50;4.68;;;11.60;72.40;;;;;;5033534;28;20074;-74
2022/03/18 02:38:56;;;;;;;19.42;4.53;;;11.60;72.40;;;;;;5041033;28;20026;-74
2022/03/18 02:41:21;;;;;;;11.43;4.00;;;11.50;72.40;;;;;;5025159;28;20029;-74
2022/03/18 02:43:47;;;;;;;11.68;3.95;;;11.50;72.50;;;;;;5043643;28;20454;-74
2022/03/18 02:46:14;;;;;;;13.02;4.13;;;11.60;72.40;;;;;;5041705;28;20029;-73
2022/03/18 02:48:39;;;;;;;8.93;3.92;;;11.50;72.30;;;;;;5043899;28;20094;-74
2022/03/18 02:51:07;;;;;;;9.00;3.90;;;11.60;72.30;;;;;;5034722;28;20482;-73
2022/03/18 02:53:33;;;;;;;12.52;4.30;;;11.50;72.30;;;;;;5036707;28;20020;-74
2022/03/18 02:55:59;;;;;;;8.98;3.63;;;11.50;72.30;;;;;;5042028;28;20090;-74
2022/03/18 02:58:25;;;;;;;11.02;3.90;;;11.50;72.30;;;;;;5044761;28;20025;-72
2022/03/18 03:00:51;;;;;;;9.65;3.55;;;11.50;72.20;;;;;;5043893;28;20059;-73
2022/03/18 03:03:17;;;;;;;15.07;4.10;;;11.60;72.30;;;;;;5043799;28;20029;-74
2022/03/18 03:08:27;;;;;;;11.50;4.32;;;11.60;72.20;;;;;;5044849;28;20068;-74
2022/03/18 03:10:53;;;;;;;12.80;4.20;;;11.50;72.20;;;;;;5044847;28;20469;-74
2022/03/18 03:13:18;;;;;;;9.30;3.80;;;11.50;72.20;;;;;;5043656;28;20078;-74
2022/03/18 03:15:44;;;;;;;11.40;4.15;;;11.60;72.80;;;;;;5043545;28;20117;-73
2022/03/18 03:18:09;;;;;;;11.68;3.40;;;11.50;72.30;;;;;;5043536;28;20385;-74
2022/03/18 03:20:35;;;;;;;7.47;3.33;;;11.50;72.20;;;;;;5046797;28;20497;-73
2022/03/18 03:23:01;;;;;;;9.63;3.42;;;11.50;72.10;;;;;;5048781;28;20068;-75
2022/03/18 03:25:27;;;;;;;9.82;3.60;;;11.60;72.10;;;;;;5046956;28;20032;-73
2022/03/18 03:27:54;;;;;;;9.63;3.83;;;11.50;72.00;;;;;;5048410;28;20021;-74
2022/03/18 03:30:20;;;;;;;10.85;3.67;;;11.50;72.10;;;;;;5046939;28;20032;-73
2022/03/18 03:32:45;;;;;;;9.80;3.58;;;11.50;72.20;;;;;;5047264;28;20025;-74
2022/03/18 03:35:12;;;;;;;8.27;3.55;;;11.50;72.10;;;;;;5048324;28;20039;-73
2022/03/18 03:37:38;;;;;;;9.10;3.30;;;11.50;72.00;;;;;;5048144;28;20402;-73
2022/03/18 03:40:04;;;;;;;8.27;3.60;;;11.50;72.00;;;;;;5046900;28;20025;-74
2022/03/18 03:42:30;;;;;;;9.25;3.63;;;11.50;72.00;;;;;;5036851;28;20025;-74
2022/03/18 03:44:55;;;;;;;8.15;3.40;;;11.50;72.00;;;;;;5019949;28;20032;-73
2022/03/18 03:47:21;;;;;;;8.63;3.20;;;11.50;72.00;;;;;;5019059;28;20030;-74
2022/03/18 03:49:46;;;;;;;9.85;3.60;;;11.50;72.00;;;;;;5021526;28;20041;-73
2022/03/18 03:52:12;;;;;;;7.72;3.40;;;11.50;71.90;;;;;;5027169;28;20026;-74
2022/03/18 03:54:38;;;;;;;7.50;3.17;;;11.50;71.90;;;;;;5028318;28;20683;-73
2022/03/18 03:57:04;;;;;;;9.23;3.33;;;11.50;71.80;;;;;;5027596;28;20033;-74
2022/03/18 03:59:30;;;;;;;10.15;3.80;;;11.50;71.90;;;;;;5035044;28;20036;-73
2022/03/18 04:01:57;;;;;;;8.00;3.67;;;11.50;71.90;;;;;;5014905;28;20120;-73
2022/03/18 04:04:23;;;;;;;9.10;3.70;;;11.50;71.90;;;;;;5047460;28;20025;-72
2022/03/18 04:06:49;;;;;;;9.20;3.60;;;11.50;71.90;;;;;;5040880;28;20029;-73
2022/03/18 04:09:15;;;;;;;9.88;3.60;;;11.50;71.90;;;;;;5045369;28;20040;-72
2022/03/18 04:11:41;;;;;;;9.68;4.00;;;11.50;71.90;;;;;;5046247;28;20100;-74
2022/03/18 04:14:06;;;;;;;11.98;4.03;;;11.50;71.80;;;;;;5046293;28;20111;-73
2022/03/18 04:16:32;;;;;;;9.18;3.70;;;11.40;71.80;;;;;;5046941;28;20031;-74
2022/03/18 04:18:57;;;;;;;12.27;3.50;;;11.50;71.80;;;;;;5035418;28;20029;-73
2022/03/18 04:21:23;;;;;;;7.57;3.30;;;11.40;71.70;;;;;;5031449;28;20025;-74
2022/03/18 04:23:49;;;;;;;8.05;3.40;;;11.50;71.80;;;;;;5047324;28;20375;-73
2022/03/18 04:26:14;;;;;;;7.05;3.60;;;11.40;71.60;;;;;;5046861;28;20024;-73
2022/03/18 04:28:40;;;;;;;9.95;3.83;;;11.50;71.70;;;;;;5043739;28;20482;-74
2022/03/18 04:31:05;;;;;;;7.45;3.42;;;11.50;71.70;;;;;;5045018;28;20501;-73
2022/03/18 04:33:31;;;;;;;10.38;3.80;;;11.50;71.70;;;;;;5039226;28;20025;-74
2022/03/18 04:35:56;;;;;;;8.35;3.55;;;11.50;71.60;;;;;;5025903;28;20025;-74
2022/03/18 04:38:23;;;;;;;9.95;3.88;;;11.40;71.50;;;;;;5044378;28;20064;-74
2022/03/18 04:40:49;;;;;;;8.68;3.63;;;11.50;71.50;;;;;;5043772;28;20516;-73
2022/03/18 04:43:15;;;;;;;7.93;3.40;;;11.50;71.50;;;;;;5042533;28;20033;-74
2022/03/18 04:45:40;;;;;;;9.32;3.35;;;11.40;71.40;;;;;;5030197;28;20531;-73
2022/03/18 04:48:06;;;;;;;9.20;3.30;;;11.50;71.40;;;;;;5045023;28;20033;-73
2022/03/18 04:50:31;;;;;;;6.32;2.95;;;11.40;71.50;;;;;;5046107;28;20114;-74
2022/03/18 04:52:57;;;;;;;7.43;3.70;;;11.40;71.50;;;;;;5028091;28;20032;-74
2022/03/18 04:55:23;;;;;;;12.13;4.13;;;11.50;71.60;;;;;;5026986;28;20037;-74
2022/03/18 04:57:48;;;;;;;9.25;4.38;;;11.50;71.50;;;;;;5024993;28;20026;-74
2022/03/18 05:00:14;;;;;;;11.02;4.72;;;11.40;71.50;;;;;;5025734;28;20091;-74
2022/03/18 05:02:40;;;;;;;9.90;4.35;;;11.40;71.40;;;;;;5042153;28;20032;-73
2022/03/18 05:05:10;;;;;;;10.93;5.05;;;11.50;71.40;;;;;;5046538;28;20039;-74
2022/03/18 05:07:39;;;;;;;9.10;4.20;;;11.50;71.30;;;;;;5037298;28;20027;-74
2022/03/18 05:10:05;;;;;;;10.80;4.53;;;11.40;71.20;;;;;;5032252;28;20114;-73
2022/03/18 05:12:31;;;;;;;10.73;4.32;;;11.40;71.20;;;;;;5031582;28;20095;-74
2022/03/18 05:14:57;;;;;;;10.43;4.60;;;11.40;71.10;;;;;;5025045;28;20033;-73
2022/03/18 05:17:22;;;;;;;11.85;4.82;;;11.40;71.00;;;;;;5041863;28;20036;-74
2022/03/18 05:19:48;;;;;;;10.02;4.05;;;11.40;70.90;;;;;;5032061;28;20048;-73
2022/03/18 05:22:13;;;;;;;8.52;4.30;;;11.40;70.90;;;;;;5044600;28;20397;-73
2022/03/18 05:24:39;;;;;;;9.93;4.70;;;11.40;70.80;;;;;;5044199;28;20478;-73
2022/03/18 05:27:04;;;;;;;8.85;3.90;;;11.40;70.80;;;;;;5040566;28;20029;-74
2022/03/18 05:29:31;;;;;;;9.32;4.25;;;11.40;70.80;;;;;;5032272;28;20037;-72
2022/03/18 05:31:57;;;;;;;8.75;3.88;;;11.40;70.80;;;;;;5033185;28;20056;-73
2022/03/18 05:34:23;;;;;;;9.90;4.53;;;11.40;70.80;;;;;;5027420;28;20474;-72
2022/03/18 05:36:49;;;;;;;7.78;3.45;;;11.40;70.80;;;;;;5036851;28;20029;-74
2022/03/18 05:39:15;;;;;;;18.95;4.50;;;11.40;70.70;;;;;;5041136;28;20067;-73
2022/03/18 05:41:43;;;;;;;20.85;5.15;;;11.40;70.30;;;;;;5030482;28;20454;-73
2022/03/18 05:44:09;;;;;;;13.50;4.90;;;11.30;68.70;;;;;;5038828;28;20068;-73
2022/03/18 05:46:34;;;;;;;12.35;4.90;;;11.30;69.10;;;;;;5029738;28;20482;-72
2022/03/18 05:49:00;;;;;;;11.23;6.38;;;11.30;69.40;;;;;;5025031;28;20112;-73
2022/03/18 05:51:27;;;;;;;17.13;10.65;;;11.30;69.60;;;;;;5025383;28;20028;-74
2022/03/18 05:53:53;;;;;;;26.08;16.05;;;11.30;69.70;;;;;;5042171;28;20029;-72
2022/03/18 05:59:06;;;;;;;33.25;20.73;;;11.30;69.80;;;;;;5036651;28;20486;-74
2022/03/18 06:01:31;;;;;;;28.42;18.08;;;11.30;69.80;;;;;;5032554;28;20160;-73
2022/03/18 06:03:58;;;;;;;25.88;17.05;;;11.30;69.90;;;;;;5038018;28;20124;-72
2022/03/18 06:06:23;;;;;;;26.13;15.73;;;11.30;69.90;;;;;;5045470;28;20688;-72
2022/03/18 06:11:48;;;;;;;22.25;13.35;;;11.30;69.80;;;;;;5030582;28;20040;-74
2022/03/18 06:14:14;;;;;;;21.73;12.63;;;11.30;69.80;;;;;;5039870;28;20029;-74
2022/03/18 06:16:40;;;;;;;20.17;12.95;;;11.30;69.80;;;;;;5027359;28;20034;-72
2022/03/18 06:19:06;;;;;;;22.33;12.57;;;11.30;69.80;;;;;;5026339;28;20040;-73
2022/03/18 06:21:31;;;;;;;18.17;11.10;;;11.30;69.70;;;;;;5027518;28;20094;-74
2022/03/18 06:23:57;;;;;;;18.15;11.23;;;11.30;69.70;;;;;;5026314;28;20522;-73
2022/03/18 06:26:22;;;;;;;17.92;11.70;;;11.30;69.70;;;;;;5026295;28;20033;-73
2022/03/18 06:28:49;;;;;;;17.58;11.88;;;11.40;69.80;;;;;;5024607;28;20033;-72
2022/03/18 06:31:15;;;;;;;18.98;11.80;;;11.30;69.80;;;;;;5026641;28;20132;-73
2022/03/18 06:33:44;;;;;;;17.05;11.40;;;11.40;69.80;;;;;;5024814;28;20124;-72
2022/03/18 06:36:10;;;;;;;17.45;11.45;;;11.40;70.00;;;;;;5024953;28;20041;-73
2022/03/18 06:38:36;;;;;;;15.40;10.75;;;11.40;69.90;;;;;;5026397;28;20032;-73
2022/03/18 06:41:02;;;;;;;15.52;10.52;;;11.30;69.70;;;;;;5018198;28;20029;-73
2022/03/18 06:43:27;;;;;;;16.58;9.63;;;11.40;69.70;;;;;;5039123;28;20021;-73
2022/03/18 06:45:53;;;;;;;17.13;11.00;;;11.40;69.70;;;;;;5030987;28;20478;-75
2022/03/18 06:48:18;;;;;;;16.65;10.45;;;11.50;69.70;;;;;;5026648;28;20410;-72
2022/03/18 06:50:44;;;;;;;16.40;11.88;;;11.50;69.70;;;;;;5026294;28;20080;-73
2022/03/18 06:53:10;;;;;;;16.48;11.45;;;11.50;69.70;;;;;;5024980;28;20156;-74
2022/03/18 06:55:35;;;;;;;16.55;11.50;;;11.50;69.70;;;;;;5028631;28;20112;-74
2022/03/18 06:58:01;;;;;;;17.42;12.20;;;11.60;69.80;;;;;;5028968;28;20257;-74
2022/03/18 07:00:27;;;;;;;20.02;12.57;;;11.60;69.90;;;;;;5029241;28;20550;-73
2022/03/18 07:02:53;;;;;;;19.40;13.23;;;11.60;69.90;;;;;;5029205;28;20173;-73
2022/03/18 07:05:19;;;;;;;16.85;12.30;;;11.60;69.90;;;;;;5029672;28;20495;-73
2022/03/18 07:07:44;;;;;;;27.40;13.43;;;11.70;70.00;;;;;;5025986;28;20022;-73
2022/03/18 07:13:14;;;;;;;22.13;12.45;;;11.70;69.90;;;;;;5021889;28;20448;-74
2022/03/18 07:15:40;;;;;;;22.83;12.73;;;11.80;69.40;;;;;;5027344;28;20112;-74
2022/03/18 07:18:06;;;;;;;23.35;13.35;;;11.80;69.10;;;;;;5025895;28;20044;-74
2022/03/18 07:20:34;;;;;;;20.42;12.07;;;11.80;69.20;;;;;;5023827;28;20100;-74
2022/03/18 07:23:04;;;;;;;19.60;12.07;;;11.90;69.50;;;;;;5006609;28;20047;-73
2022/03/18 07:25:30;;;;;;;20.48;11.60;;;11.90;69.60;;;;;;5006939;28;20030;-72
2022/03/18 07:27:56;;;;;;;19.27;11.45;;;11.90;69.80;;;;;;5007143;28;20495;-73
2022/03/18 07:30:22;;;;;;;18.88;10.82;;;12.00;69.90;;;;;;5007307;28;20967;-73
2022/03/18 07:32:48;;;;;;;21.20;11.18;;;12.00;70.10;;;;;;5006806;28;20125;-74
2022/03/18 07:35:14;;;;;;;18.80;10.50;;;12.00;70.00;;;;;;5006849;28;20064;-74
2022/03/18 07:37:41;;;;;;;19.33;10.27;;;12.10;70.20;;;;;;5008221;28;20523;-73
2022/03/18 07:40:08;;;;;;;16.77;10.20;;;12.00;70.20;;;;;;5007579;28;20303;-73
2022/03/18 07:42:42;;;;;;;16.13;10.75;;;12.10;70.20;;;;;;5006719;28;20495;-74
2022/03/18 07:45:09;;;;;;;18.27;10.52;;;12.10;70.00;;;;;;5006645;28;20038;-74
2022/03/18 07:47:35;;;;;;;17.00;10.50;;;12.10;70.00;;;;;;5006689;28;20030;-74
2022/03/18 07:50:00;;;;;;;15.43;10.18;;;12.10;69.90;;;;;;5006445;28;20033;-74
2022/03/18 07:52:26;;;;;;;15.18;9.57;;;12.20;69.90;;;;;;5006582;28;20144;-74
2022/03/18 07:54:51;;;;;;;15.48;9.48;;;12.20;69.80;;;;;;5006484;28;20026;-73
2022/03/18 07:57:17;;;;;;;14.35;9.35;;;12.20;69.90;;;;;;5007950;28;20030;-74
2022/03/18 07:59:42;;;;;;;15.35;8.90;;;12.30;69.90;;;;;;5007751;28;20040;-75
2022/03/18 08:02:08;;;;;;;14.82;9.05;;;12.30;69.90;;;;;;5006106;28;20022;-74
2022/03/18 08:04:34;;;;;;;12.95;8.55;;;12.30;69.80;;;;;;5006502;28;20030;-75
2022/03/18 08:07:03;;;;;;;14.18;8.43;;;12.30;69.70;;;;;;5006639;28;20037;-74
2022/03/18 08:09:29;;;;;;;13.52;8.55;;;12.30;69.60;;;;;;5007459;28;20030;-73
2022/03/18 08:11:55;;;;;;;15.32;8.63;;;12.30;69.50;;;;;;5007250;28;20104;-74
2022/03/18 08:14:21;;;;;;;13.52;7.90;;;12.30;69.40;;;;;;5007126;28;20290;-73
2022/03/18 08:16:47;;;;;;;13.02;8.68;;;12.40;69.50;;;;;;5006260;28;20030;-74
2022/03/18 08:19:13;;;;;;;14.05;7.60;;;12.40;69.50;;;;;;5007006;28;20034;-74
2022/03/18 08:21:38;;;;;;;12.98;7.80;;;12.40;69.40;;;;;;5005751;28;20072;-74
2022/03/18 08:24:04;;;;;;;14.43;7.93;;;12.40;69.40;;;;;;5007055;28;20083;-72
2022/03/18 08:26:30;;;;;;;13.07;7.35;;;12.40;69.40;;;;;;5005978;28;20030;-74
2022/03/18 08:28:57;;;;;;;14.35;7.82;;;12.50;69.50;;;;;;5005718;28;20129;-73
2022/03/18 08:31:22;;;;;;;13.48;7.70;;;12.40;69.50;;;;;;5006607;28;20030;-74
2022/03/18 08:33:48;;;;;;;11.68;7.25;;;12.40;69.50;;;;;;5006894;28;20112;-73
2022/03/18 08:36:13;;;;;;;11.07;7.35;;;12.50;69.60;;;;;;5007152;28;20458;-74
2022/03/18 08:38:40;;;;;;;10.80;7.03;;;12.50;69.70;;;;;;5005427;28;20745;-73
2022/03/18 08:41:06;;;;;;;11.52;6.78;;;12.50;69.70;;;;;;5006674;28;20026;-73
2022/03/18 08:43:31;;;;;;;9.80;6.38;;;12.50;69.80;;;;;;5006901;28;20030;-73
2022/03/18 08:45:57;;;;;;;10.23;6.80;;;12.50;69.60;;;;;;5006971;28;20034;-74
2022/03/18 08:48:22;;;;;;;13.30;6.78;;;12.50;69.60;;;;;;5006905;28;20034;-74
2022/03/18 08:50:48;;;;;;;10.60;6.63;;;12.50;69.60;;;;;;5005074;28;20112;-73
2022/03/18 08:53:13;;;;;;;10.82;6.47;;;12.50;69.60;;;;;;5006755;28;20030;-73
2022/03/18 08:55:40;;;;;;;11.52;6.88;;;12.50;69.60;;;;;;5005162;28;20442;-73
2022/03/18 08:58:07;;;;;;;10.52;6.28;;;12.50;69.60;;;;;;5005130;28;20037;-78
2022/03/18 09:00:34;;;;;;;10.85;6.25;;;12.50;69.60;;;;;;5005595;28;20034;-74
2022/03/18 09:02:59;;;;;;;10.05;5.97;;;12.50;69.60;;;;;;5003274;28;20039;-74
2022/03/18 09:05:25;;;;;;;10.25;6.35;;;12.60;69.70;;;;;;5014018;28;20022;-74
2022/03/18 09:07:50;;;;;;;10.98;6.07;;;12.60;69.60;;;;;;4987569;28;20042;-74
2022/03/18 09:10:16;;;;;;;9.18;5.72;;;12.60;69.60;;;;;;5015387;28;20033;-73
2022/03/18 09:12:49;;;;;;;9.73;6.03;;;12.60;69.60;;;;;;4998064;28;20123;-75
2022/03/18 09:15:16;;;;;;;11.45;6.43;;;12.60;69.50;;;;;;4997264;28;20041;-75
2022/03/18 09:17:42;;;;;;;10.00;6.13;;;12.60;69.50;;;;;;5000196;28;20081;-75
2022/03/18 09:20:08;;;;;;;9.05;6.35;;;12.70;69.60;;;;;;5002113;28;20042;-74
2022/03/18 09:22:34;;;;;;;11.43;6.30;;;12.70;69.50;;;;;;4991978;28;20088;-74
2022/03/18 09:24:59;;;;;;;9.00;5.95;;;12.70;69.50;;;;;;4993729;28;20068;-75
2022/03/18 09:27:25;;;;;;;10.60;6.35;;;12.70;69.50;;;;;;4998316;28;20745;-75
2022/03/18 09:29:50;;;;;;;13.43;5.82;;;12.70;69.50;;;;;;4999937;28;20038;-77
2022/03/18 09:32:16;;;;;;;14.65;6.30;;;12.70;69.50;;;;;;4992782;28;20022;-75
2022/03/18 09:34:42;;;;;;;14.95;6.30;;;12.70;69.50;;;;;;4993562;28;20021;-74
2022/03/18 09:37:07;;;;;;;11.27;6.28;;;12.80;69.40;;;;;;4999088;28;20030;-73
2022/03/18 09:39:33;;;;;;;14.70;6.22;;;12.70;69.40;;;;;;5008488;28;20110;-74
2022/03/18 09:41:59;;;;;;;12.00;5.93;;;12.70;69.40;;;;;;5017475;28;20030;-73
2022/03/18 09:44:32;;;;;;;11.63;5.93;;;12.70;69.40;;;;;;5006320;28;20419;-74
2022/03/18 09:46:59;;;;;;;12.70;5.90;;;12.80;69.40;;;;;;5010672;28;20100;-74
2022/03/18 09:49:25;;;;;;;14.35;6.28;;;12.80;69.40;;;;;;5012188;28;20394;-74
2022/03/18 09:51:50;;;;;;;11.70;5.90;;;12.80;69.40;;;;;;5009168;28;20045;-75
2022/03/18 09:54:17;;;;;;;10.23;6.00;;;12.80;69.40;;;;;;5006171;28;20025;-74
2022/03/18 09:56:45;;;;;;;10.20;5.95;;;12.80;69.30;;;;;;5008757;28;20040;-74
2022/03/18 09:59:11;;;;;;;13.23;5.55;;;12.80;69.30;;;;;;5012639;28;20034;-74
2022/03/18 10:01:37;;;;;;;10.68;6.00;;;12.90;69.30;;;;;;5007194;28;20029;-74
2022/03/18 10:04:06;;;;;;;11.65;5.60;;;12.90;69.30;;;;;;5002448;28;20029;-75
2022/03/18 10:06:34;;;;;;;10.77;5.18;;;12.80;69.20;;;;;;5002671;28;20022;-75
2022/03/18 10:09:00;;;;;;;11.48;5.65;;;12.80;69.00;;;;;;5014145;28;20010;-73
2022/03/18 10:11:28;;;;;;;14.35;5.47;;;12.80;68.70;;;;;;5023145;28;20035;-75
2022/03/18 10:14:05;;;;;;;12.60;5.15;;;12.90;68.60;;;;;;5013117;28;20029;-74
2022/03/18 10:16:33;;;;;;;10.77;5.57;;;12.80;68.50;;;;;;5025008;28;20047;-73
2022/03/18 10:19:00;;;;;;;10.15;5.38;;;12.80;68.30;;;;;;5005946;28;20026;-75
2022/03/18 10:21:27;;;;;;;12.48;5.15;;;12.80;68.30;;;;;;5005174;28;20029;-75
2022/03/18 10:24:07;;;;;;;10.82;4.80;;;12.70;68.30;;;;;;5007092;28;20038;-73
2022/03/18 10:26:35;;;;;;;10.15;4.80;;;12.80;67.90;;;;;;5011588;28;20108;-72
2022/03/18 10:29:00;;;;;;;10.98;4.90;;;12.80;68.20;;;;;;5024898;28;20037;-74
2022/03/18 10:31:26;;;;;;;10.15;5.18;;;12.80;67.80;;;;;;5017070;28;20075;-75
2022/03/18 10:39:31;;;;;;;8.98;4.72;;;12.80;67.80;;;;;;5028212;28;20045;-73
2022/03/18 10:42:03;;;;;;;10.52;4.20;;;12.80;67.30;;;;;;5018160;28;20037;-74
2022/03/18 10:44:51;;;;;;;9.48;4.40;;;12.80;67.20;;;;;;5007822;28;20038;-73
2022/03/18 10:47:40;;;;;;;13.95;4.78;;;12.80;67.20;;;;;;5007910;28;20064;-73
2022/03/18 10:50:16;;;;;;;12.38;4.55;;;12.80;67.40;;;;;;5007085;28;20248;-74
2022/03/18 10:52:47;;;;;;;15.38;4.85;;;12.90;67.80;;;;;;5023105;28;20141;-74
2022/03/18 10:55:21;;;;;;;12.13;4.38;;;12.90;67.60;;;;;;5009208;28;20022;-75
2022/03/18 10:58:03;;;;;;;12.77;4.93;;;12.80;67.40;;;;;;5008894;28;20189;-73
2022/03/18 11:00:34;;;;;;;11.02;4.50;;;12.80;67.30;;;;;;5007254;28;20037;-73
2022/03/18 11:03:01;;;;;;;13.07;4.95;;;12.80;67.10;;;;;;5023898;28;20116;-74
2022/03/18 11:05:32;;;;;;;11.80;4.32;;;12.80;67.00;;;;;;5008592;28;20029;-75
2022/03/18 11:08:04;;;;;;;8.60;3.97;;;12.90;67.00;;;;;;5008661;28;20026;-74
2022/03/18 11:13:20;;;;;;;8.48;4.00;;;12.90;67.00;;;;;;5008796;28;20084;-75
2022/03/18 11:15:46;;;;;;;9.57;3.80;;;12.80;67.00;;;;;;5007401;28;20026;-74
2022/03/18 11:18:13;;;;;;;9.63;4.18;;;12.90;67.10;;;;;;5008253;28;20458;-73
2022/03/18 11:20:43;;;;;;;8.35;3.75;;;12.90;67.00;;;;;;5006869;28;20072;-74
2022/03/18 11:23:19;;;;;;;10.77;3.78;;;12.90;66.90;;;;;;5023492;28;20053;-74
2022/03/18 11:25:49;;;;;;;10.32;4.20;;;12.90;66.90;;;;;;5006981;28;20423;-74
2022/03/18 11:28:19;;;;;;;9.57;4.00;;;12.90;66.90;;;;;;5006773;28;20026;-75
2022/03/18 11:30:47;;;;;;;8.20;3.78;;;13.00;66.90;;;;;;5007698;28;20219;-73
2022/03/18 11:33:16;;;;;;;9.48;3.85;;;13.00;66.90;;;;;;5008499;28;20033;-73
2022/03/18 11:35:48;;;;;;;9.93;3.92;;;13.00;66.80;;;;;;5006950;28;20499;-73
2022/03/18 11:38:14;;;;;;;8.10;3.78;;;13.00;66.70;;;;;;5006702;28;20056;-75
2022/03/18 11:40:51;;;;;;;10.95;4.35;;;12.90;66.40;;;;;;5007635;28;20555;-74
2022/03/18 11:43:36;;;;;;;8.95;3.83;;;13.00;66.50;;;;;;5008263;28;20030;-75
2022/03/18 11:46:16;;;;;;;9.90;4.32;;;13.00;66.70;;;;;;5006622;28;20041;-75
2022/03/18 11:48:54;;;;;;;8.37;3.80;;;13.00;66.90;;;;;;5006627;28;20467;-74
2022/03/18 11:51:33;;;;;;;9.77;4.22;;;13.00;66.90;;;;;;5006888;28;20305;-73
2022/03/18 11:54:05;;;;;;;8.75;4.15;;;12.90;67.00;;;;;;5007849;28;20029;-73
2022/03/18 11:56:39;;;;;;;9.00;4.00;;;12.90;67.00;;;;;;5007719;28;20097;-73
2022/03/18 11:59:23;;;;;;;10.63;3.90;;;13.00;67.10;;;;;;5006487;28;20040;-74
2022/03/18 12:01:53;;;;;;;6.82;3.25;;;12.90;67.00;;;;;;5007263;28;20026;-75
2022/03/18 12:04:34;;;;;;;8.18;3.53;;;12.90;66.80;;;;;;5006632;28;20033;-74
2022/03/18 12:07:13;;;;;;;10.40;3.53;;;12.90;66.50;;;;;;5006271;28;20120;-74
2022/03/18 12:09:55;;;;;;;8.00;3.83;;;12.90;66.70;;;;;;5007782;28;20030;-74
2022/03/18 12:12:22;;;;;;;9.15;4.00;;;13.00;66.90;;;;;;5007236;28;20038;-75
2022/03/18 12:14:48;;;;;;;8.32;3.50;;;12.90;67.00;;;;;;5007705;28;20037;-74
2022/03/18 12:17:14;;;;;;;9.32;3.72;;;12.90;66.70;;;;;;5022389;28;20087;-75
2022/03/18 12:19:39;;;;;;;10.60;4.07;;;12.90;66.60;;;;;;5022645;28;20022;-75
2022/03/18 12:22:07;;;;;;;9.27;3.67;;;12.90;66.60;;;;;;5006864;28;20408;-75
2022/03/18 12:24:32;;;;;;;8.20;3.30;;;12.90;66.70;;;;;;5005606;28;20041;-76
2022/03/18 12:27:01;;;;;;;9.85;3.67;;;12.90;66.80;;;;;;5025573;28;20289;-75
2022/03/18 12:29:29;;;;;;;10.25;3.47;;;12.90;67.50;;;;;;5017521;28;20038;-76
2022/03/18 12:32:13;;;;;;;9.00;3.38;;;12.90;67.10;;;;;;5014316;28;20025;-76
2022/03/18 12:34:48;;;;;;;8.93;3.85;;;12.90;67.10;;;;;;4998456;28;20739;-74
2022/03/18 12:37:17;;;;;;;62.58;7.45;;;12.90;67.30;;;;;;5005145;28;20105;-74
2022/03/18 12:39:44;;;;;;;52.15;7.45;;;13.00;67.90;;;;;;5007021;28;20028;-75
2022/03/18 12:42:11;;;;;;;68.70;7.95;;;13.00;67.70;;;;;;5006654;28;20026;-74
2022/03/18 12:44:38;;;;;;;54.90;8.43;;;13.10;67.50;;;;;;5005804;28;20030;-74
2022/03/18 12:47:05;;;;;;;57.95;7.03;;;13.20;68.60;;;;;;5006809;28;20026;-74
2022/03/18 12:49:37;;;;;;;51.92;7.50;;;13.20;68.70;;;;;;5006778;28;20030;-74
2022/03/18 12:52:11;;;;;;;51.15;8.05;;;13.30;69.30;;;;;;5004287;28;20026;-74
2022/03/18 12:54:37;;;;;;;44.40;7.43;;;13.30;69.60;;;;;;5006630;28;20053;-72
2022/03/18 12:57:07;;;;;;;49.97;7.63;;;13.30;69.30;;;;;;5005433;28;20028;-75
2022/03/18 12:59:33;;;;;;;38.20;6.53;;;13.40;68.70;;;;;;5005302;28;20096;-74
2022/03/18 13:01:58;;;;;;;31.77;6.28;;;13.30;69.00;;;;;;5006365;28;20065;-74
2022/03/18 13:04:24;;;;;;;24.85;5.55;;;13.40;71.90;;;;;;5005166;28;20036;-74